Darstellungsparameter: Aktuell verwendete Einstellungen:
Skalierung der Graphiken ... ?
xyx+y,   Skalierungsfaktor:      Skalierung: Modus: x, Faktor: 1
Darstellungszeitraum ... ?
Vom - - bis: - -   Zeitraum: 14.09.2016 - 14.09.2016
Min/Max/Avg-Anzeige ... ?
Zeige MMA aktuell
Zeige MMA Monat
Zeige MMA alles
Zeige --A aktuell
Zeige --A Monat
Zeige --A alles
Keine MMA-Anzeige
MMA:
Keine MMA-Graphiken
MMA-Basis: 14.09.2016 - 14.09.2016
Quicknavigation für Darstellung... ?
Tage:      1T, 2T, 3T, 5T -1T -2T -3T -5T +1T +2T +3T +5T
Wochen: 1W, 2W, 3W -1W -2W -3W +1W +2W +3W
Monate: 1M, 3M, 6M -1M -3M -6M +1M +3M +6M
Jahre:    1J, 3J, 5J, 10J -1J -3J -5J -10J +1J +3J +5J +10J
Nutze für die Darstellung ... ?
Originaldaten oder Mittelwerte auf ...
Stundenbasis Tagesbasis Wochenbasis
Monatsbasis Jahresbasis      Datenbasis: Original-Daten
Darstellen als:
Statistik (Auto) Statistik J:M      Darstellung:
Zur Graphik,    zurück zur Übersicht aller Sensoren.
 
Tabellarische Datenbersicht: ?
 
Sensor: Nr:Datum:Temp:Feuchte:Taupunkt:
Aussen-T/F 1 14-09-2016 00:00:00 18.3 C 82 % 15.17 C
2 14-09-2016 00:05:00 18.3 C 82 % 15.17 C
3 14-09-2016 00:10:00 18.3 C 82 % 15.17 C
4 14-09-2016 00:15:00 18.2 C 83 % 15.27 C
5 14-09-2016 00:20:00 18.2 C 83 % 15.27 C
6 14-09-2016 00:25:00 18.1 C 83 % 15.17 C
7 14-09-2016 00:30:00 18 C 83 % 15.07 C
8 14-09-2016 00:35:00 17.9 C 83 % 14.97 C
9 14-09-2016 00:40:00 17.8 C 84 % 15.06 C
10 14-09-2016 00:45:00 17.8 C 84 % 15.06 C
11 14-09-2016 00:50:00 17.7 C 85 % 15.15 C
12 14-09-2016 00:55:00 17.6 C 85 % 15.05 C
13 14-09-2016 01:00:00 17.6 C 85 % 15.05 C
14 14-09-2016 01:05:00 17.5 C 85 % 14.95 C
15 14-09-2016 01:10:00 17.5 C 86 % 15.13 C
16 14-09-2016 01:15:00 17.4 C 86 % 15.03 C
17 14-09-2016 01:20:00 17.4 C 86 % 15.03 C
18 14-09-2016 01:25:00 17.4 C 86 % 15.03 C
19 14-09-2016 01:30:00 17.3 C 86 % 14.94 C
20 14-09-2016 01:35:00 17.2 C 86 % 14.84 C
21 14-09-2016 01:40:00 17.2 C 87 % 15.02 C
22 14-09-2016 01:45:00 17.1 C 87 % 14.92 C
23 14-09-2016 01:50:00 17.1 C 87 % 14.92 C
24 14-09-2016 01:55:00 17.1 C 87 % 14.92 C
25 14-09-2016 02:00:00 17.1 C 88 % 15.1 C
Sensor: Nr:Datum:Temp:Feuchte:Taupunkt:
Aussen-T/F 26 14-09-2016 02:05:00 17 C 88 % 15 C
27 14-09-2016 02:10:00 17 C 88 % 15 C
28 14-09-2016 02:15:00 16.9 C 88 % 14.9 C
29 14-09-2016 02:20:00 16.9 C 89 % 15.08 C
30 14-09-2016 02:25:00 16.8 C 89 % 14.98 C
31 14-09-2016 02:30:00 16.8 C 89 % 14.98 C
32 14-09-2016 02:35:00 16.7 C 89 % 14.88 C
33 14-09-2016 02:40:00 16.6 C 89 % 14.78 C
34 14-09-2016 02:45:00 16.6 C 90 % 14.95 C
35 14-09-2016 02:50:00 16.5 C 90 % 14.85 C
36 14-09-2016 02:55:00 16.4 C 90 % 14.76 C
37 14-09-2016 03:00:00 16.3 C 90 % 14.66 C
38 14-09-2016 03:05:00 16.3 C 90 % 14.66 C
39 14-09-2016 03:10:00 16.2 C 90 % 14.56 C
40 14-09-2016 03:15:00 16.2 C 90 % 14.56 C
41 14-09-2016 03:20:00 16.1 C 90 % 14.46 C
42 14-09-2016 03:25:00 16 C 90 % 14.36 C
43 14-09-2016 03:30:00 15.9 C 90 % 14.26 C
44 14-09-2016 03:35:00 15.9 C 91 % 14.43 C
45 14-09-2016 03:40:00 15.9 C 91 % 14.43 C
46 14-09-2016 03:45:00 15.9 C 91 % 14.43 C
47 14-09-2016 03:50:00 15.9 C 91 % 14.43 C
48 14-09-2016 03:55:00 15.9 C 91 % 14.43 C
49 14-09-2016 04:00:00 15.9 C 91 % 14.43 C
50 14-09-2016 04:05:00 15.9 C 91 % 14.43 C
Sensor: Nr:Datum:Temp:Feuchte:Taupunkt:
Aussen-T/F 51 14-09-2016 04:10:00 15.8 C 92 % 14.5 C
52 14-09-2016 04:15:00 15.8 C 92 % 14.5 C
53 14-09-2016 04:20:00 15.8 C 92 % 14.5 C
54 14-09-2016 04:25:00 15.8 C 92 % 14.5 C
55 14-09-2016 04:30:00 15.7 C 92 % 14.4 C
56 14-09-2016 04:35:00 15.7 C 92 % 14.4 C
57 14-09-2016 04:40:00 15.7 C 92 % 14.4 C
58 14-09-2016 04:45:00 15.7 C 92 % 14.4 C
59 14-09-2016 04:50:00 15.6 C 92 % 14.31 C
60 14-09-2016 04:55:00 15.6 C 92 % 14.31 C
61 14-09-2016 05:00:00 15.4 C 92 % 14.11 C
62 14-09-2016 05:05:00 15.4 C 92 % 14.11 C
63 14-09-2016 05:10:00 15.3 C 92 % 14.01 C
64 14-09-2016 05:15:00 15.3 C 92 % 14.01 C
65 14-09-2016 05:20:00 15.3 C 92 % 14.01 C
66 14-09-2016 05:25:00 15.3 C 93 % 14.18 C
67 14-09-2016 05:30:00 15.3 C 92 % 14.01 C
68 14-09-2016 05:35:00 15.2 C 93 % 14.08 C
69 14-09-2016 05:40:00 15.2 C 93 % 14.08 C
70 14-09-2016 05:45:00 15.2 C 93 % 14.08 C
71 14-09-2016 05:50:00 15.1 C 93 % 13.98 C
72 14-09-2016 05:55:00 15.1 C 93 % 13.98 C
73 14-09-2016 06:00:00 15.1 C 93 % 13.98 C
74 14-09-2016 06:05:00 15 C 93 % 13.88 C
75 14-09-2016 06:10:00 15 C 93 % 13.88 C
Sensor: Nr:Datum:Temp:Feuchte:Taupunkt:
Aussen-T/F 76 14-09-2016 06:15:00 14.9 C 93 % 13.78 C
77 14-09-2016 06:20:00 14.9 C 93 % 13.78 C
78 14-09-2016 06:25:00 14.8 C 93 % 13.68 C
79 14-09-2016 06:30:00 14.9 C 94 % 13.94 C
80 14-09-2016 06:35:00 14.8 C 93 % 13.68 C
81 14-09-2016 06:40:00 14.7 C 93 % 13.58 C
82 14-09-2016 06:45:00 14.7 C 93 % 13.58 C
83 14-09-2016 06:50:00 14.6 C 93 % 13.48 C
84 14-09-2016 06:55:00 14.6 C 94 % 13.65 C
85 14-09-2016 07:00:00 14.7 C 94 % 13.74 C
86 14-09-2016 07:05:00 14.6 C 94 % 13.65 C
87 14-09-2016 07:10:00 14.6 C 94 % 13.65 C
88 14-09-2016 07:15:00 14.5 C 94 % 13.55 C
89 14-09-2016 07:20:00 14.5 C 94 % 13.55 C
90 14-09-2016 07:25:00 14.4 C 94 % 13.45 C
91 14-09-2016 07:30:00 14.4 C 94 % 13.45 C
92 14-09-2016 07:35:00 14.4 C 94 % 13.45 C
93 14-09-2016 07:40:00 14.4 C 94 % 13.45 C
94 14-09-2016 07:45:00 14.4 C 94 % 13.45 C
95 14-09-2016 07:50:00 14.5 C 94 % 13.55 C
96 14-09-2016 07:55:00 14.6 C 95 % 13.81 C
97 14-09-2016 08:00:00 14.7 C 95 % 13.91 C
98 14-09-2016 08:05:00 14.9 C 95 % 14.11 C
99 14-09-2016 08:10:00 15 C 95 % 14.21 C
100 14-09-2016 08:15:00 15 C 95 % 14.21 C
Sensor: Nr:Datum:Temp:Feuchte:Taupunkt:
Aussen-T/F 101 14-09-2016 08:20:00 15.1 C 95 % 14.31 C
102 14-09-2016 08:25:00 15.1 C 95 % 14.31 C
103 14-09-2016 08:30:00 15 C 95 % 14.21 C
104 14-09-2016 08:35:00 15 C 95 % 14.21 C
105 14-09-2016 08:40:00 15.1 C 95 % 14.31 C
106 14-09-2016 08:45:00 15.1 C 95 % 14.31 C
107 14-09-2016 08:50:00 15.2 C 95 % 14.4 C
108 14-09-2016 08:55:00 15.2 C 95 % 14.4 C
109 14-09-2016 09:00:00 15.2 C 95 % 14.4 C
110 14-09-2016 09:05:00 15.3 C 95 % 14.5 C
111 14-09-2016 09:10:00 15.4 C 95 % 14.6 C
112 14-09-2016 09:15:00 15.5 C 95 % 14.7 C
113 14-09-2016 09:20:00 15.6 C 95 % 14.8 C
114 14-09-2016 09:25:00 15.7 C 95 % 14.9 C
115 14-09-2016 09:30:00 15.8 C 95 % 15 C
116 14-09-2016 09:35:00 15.9 C 95 % 15.1 C
117 14-09-2016 09:40:00 16.1 C 95 % 15.3 C
118 14-09-2016 09:45:00 16.2 C 95 % 15.4 C
119 14-09-2016 09:50:00 16.3 C 95 % 15.5 C
120 14-09-2016 09:55:00 16.5 C 95 % 15.7 C
121 14-09-2016 10:00:00 16.6 C 95 % 15.8 C
122 14-09-2016 10:05:00 16.8 C 95 % 15.99 C
123 14-09-2016 10:10:00 16.9 C 95 % 16.09 C
124 14-09-2016 10:15:00 17.1 C 94 % 16.13 C
125 14-09-2016 10:20:00 17.2 C 94 % 16.23 C
Sensor: Nr:Datum:Temp:Feuchte:Taupunkt:
Aussen-T/F 126 14-09-2016 10:25:00 17.4 C 94 % 16.42 C
127 14-09-2016 10:30:00 17.7 C 93 % 16.55 C
128 14-09-2016 10:35:00 17.9 C 92 % 16.58 C
129 14-09-2016 10:40:00 18.2 C 91 % 16.71 C
130 14-09-2016 10:45:00 18.4 C 91 % 16.9 C
131 14-09-2016 10:50:00 18.7 C 90 % 17.03 C
132 14-09-2016 10:55:00 18.9 C 90 % 17.22 C
133 14-09-2016 11:00:00 19.2 C 89 % 17.34 C
134 14-09-2016 11:05:00 19.5 C 88 % 17.46 C
135 14-09-2016 11:10:00 19.8 C 88 % 17.75 C
136 14-09-2016 11:15:00 20 C 86 % 17.59 C
137 14-09-2016 11:20:00 20.3 C 86 % 17.88 C
138 14-09-2016 11:25:00 20.6 C 86 % 18.18 C
139 14-09-2016 11:30:00 20.8 C 85 % 18.18 C
140 14-09-2016 11:35:00 20.9 C 84 % 18.09 C
141 14-09-2016 11:40:00 21.2 C 84 % 18.39 C
142 14-09-2016 11:45:00 21.4 C 83 % 18.39 C
143 14-09-2016 11:50:00 21.7 C 82 % 18.49 C
144 14-09-2016 11:55:00 21.9 C 78 % 17.89 C
145 14-09-2016 12:00:00 22.3 C 80 % 18.68 C
146 14-09-2016 12:05:00 22.6 C 76 % 18.15 C
147 14-09-2016 12:10:00 22.9 C 74 % 18.02 C
148 14-09-2016 12:15:00 23.3 C 69 % 17.29 C
149 14-09-2016 12:20:00 23.8 C 71 % 18.22 C
150 14-09-2016 12:25:00 24 C 69 % 17.96 C
Sensor: Nr:Datum:Temp:Feuchte:Taupunkt:
Aussen-T/F 151 14-09-2016 12:30:00 24.3 C 65 % 17.3 C
152 14-09-2016 12:35:00 24.8 C 66 % 18.01 C
153 14-09-2016 12:40:00 24.9 C 65 % 17.87 C
154 14-09-2016 12:45:00 25 C 67 % 18.44 C
155 14-09-2016 12:50:00 25.1 C 66 % 18.3 C
156 14-09-2016 12:55:00 25.1 C 69 % 19.01 C
157 14-09-2016 13:00:00 25.1 C 68 % 18.78 C
158 14-09-2016 13:05:00 25.1 C 67 % 18.54 C
159 14-09-2016 13:10:00 25.2 C 62 % 17.4 C
160 14-09-2016 13:15:00 25.3 C 62 % 17.5 C
161 14-09-2016 13:20:00 25.7 C 60 % 17.35 C
162 14-09-2016 13:25:00 26.1 C 61 % 17.99 C
163 14-09-2016 13:30:00 26.3 C 55 % 16.54 C
164 14-09-2016 13:35:00 26.7 C 62 % 18.81 C
165 14-09-2016 13:40:00 26.7 C 59 % 18.02 C
166 14-09-2016 13:45:00 26.7 C 57 % 17.47 C
167 14-09-2016 13:50:00 26.8 C 57 % 17.57 C
168 14-09-2016 13:55:00 26.9 C 50 % 15.6 C
169 14-09-2016 14:00:00 27.1 C 48 % 15.15 C
170 14-09-2016 14:05:00 27.4 C 52 % 16.67 C
171 14-09-2016 14:10:00 27.7 C 48 % 15.69 C
172 14-09-2016 14:15:00 27.9 C 48 % 15.87 C
173 14-09-2016 14:20:00 28.3 C 50 % 16.88 C
174 14-09-2016 14:25:00 28.3 C 45 % 15.23 C
175 14-09-2016 14:30:00 28.4 C 48 % 16.33 C
Sensor: Nr:Datum:Temp:Feuchte:Taupunkt:
Aussen-T/F 176 14-09-2016 14:35:00 28.4 C 45 % 15.32 C
177 14-09-2016 14:40:00 28.4 C 43 % 14.62 C
178 14-09-2016 14:45:00 28.7 C 42 % 14.52 C
179 14-09-2016 14:50:00 28.8 C 45 % 15.68 C
180 14-09-2016 14:55:00 28.8 C 42 % 14.61 C
181 14-09-2016 15:00:00 28.8 C 44 % 15.33 C
182 14-09-2016 15:05:00 29.1 C 43 % 15.24 C
183 14-09-2016 15:10:00 29.2 C 48 % 17.06 C
184 14-09-2016 15:15:00 29 C 50 % 17.52 C
185 14-09-2016 15:20:00 28.8 C 50 % 17.34 C
186 14-09-2016 15:25:00 28.4 C 49 % 16.65 C
187 14-09-2016 15:30:00 28.2 C 53 % 17.71 C
188 14-09-2016 15:35:00 28 C 47 % 15.64 C
189 14-09-2016 15:40:00 28.1 C 45 % 15.05 C
190 14-09-2016 15:45:00 28.8 C 41 % 14.24 C
191 14-09-2016 15:50:00 29.3 C 43 % 15.42 C
192 14-09-2016 15:55:00 29.4 C 40 % 14.39 C
193 14-09-2016 16:00:00 29.6 C 41 % 14.95 C
194 14-09-2016 16:05:00 29.7 C 42 % 15.42 C
195 14-09-2016 16:10:00 29.7 C 38 % 13.87 C
196 14-09-2016 16:15:00 29.8 C 38 % 13.95 C
197 14-09-2016 16:20:00 29.9 C 46 % 17.02 C
198 14-09-2016 16:25:00 29.7 C 42 % 15.42 C
199 14-09-2016 16:30:00 29.7 C 41 % 15.04 C
200 14-09-2016 16:35:00 29.8 C 39 % 14.36 C
Sensor: Nr:Datum:Temp:Feuchte:Taupunkt:
Aussen-T/F 201 14-09-2016 16:40:00 29.9 C 39 % 14.44 C
202 14-09-2016 16:45:00 30.1 C 43 % 16.14 C
203 14-09-2016 16:50:00 30.2 C 38 % 14.31 C
204 14-09-2016 16:55:00 30.4 C 39 % 14.89 C
205 14-09-2016 17:00:00 30.6 C 40 % 15.46 C
206 14-09-2016 17:05:00 30.7 C 37 % 14.34 C
207 14-09-2016 17:10:00 30.7 C 44 % 17.04 C
208 14-09-2016 17:15:00 30.6 C 43 % 16.59 C
209 14-09-2016 17:20:00 30.7 C 38 % 14.75 C
210 14-09-2016 17:25:00 30.8 C 41 % 16.02 C
211 14-09-2016 17:30:00 30.9 C 44 % 17.22 C
212 14-09-2016 17:35:00 30.7 C 45 % 17.4 C
213 14-09-2016 17:40:00 30.6 C 48 % 18.33 C
214 14-09-2016 17:45:00 30.6 C 39 % 15.07 C
215 14-09-2016 17:50:00 30.7 C 44 % 17.04 C
216 14-09-2016 17:55:00 30.6 C 45 % 17.31 C
217 14-09-2016 18:00:00 30.3 C 46 % 17.39 C
218 14-09-2016 18:05:00 29.9 C 48 % 17.7 C
219 14-09-2016 18:10:00 29.5 C 49 % 17.66 C
220 14-09-2016 18:15:00 28.9 C 50 % 17.43 C
221 14-09-2016 18:20:00 28.4 C 52 % 17.59 C
222 14-09-2016 18:25:00 27.9 C 53 % 17.43 C
223 14-09-2016 18:30:00 27.6 C 54 % 17.45 C
224 14-09-2016 18:35:00 27.3 C 54 % 17.18 C
225 14-09-2016 18:40:00 27 C 55 % 17.19 C
Sensor: Nr:Datum:Temp:Feuchte:Taupunkt:
Aussen-T/F 226 14-09-2016 18:45:00 26.8 C 54 % 16.71 C
227 14-09-2016 18:50:00 26.6 C 55 % 16.82 C
228 14-09-2016 18:55:00 26.4 C 55 % 16.63 C
229 14-09-2016 19:00:00 26.2 C 55 % 16.45 C
230 14-09-2016 19:05:00 26 C 56 % 16.54 C
231 14-09-2016 19:10:00 25.8 C 56 % 16.36 C
232 14-09-2016 19:15:00 25.6 C 57 % 16.45 C
233 14-09-2016 19:20:00 25.3 C 57 % 16.17 C
234 14-09-2016 19:25:00 25.1 C 57 % 15.98 C
235 14-09-2016 19:30:00 24.9 C 57 % 15.8 C
236 14-09-2016 19:35:00 24.7 C 58 % 15.88 C
237 14-09-2016 19:40:00 24.6 C 57 % 15.52 C
238 14-09-2016 19:45:00 24.4 C 58 % 15.6 C
239 14-09-2016 19:50:00 24.3 C 58 % 15.51 C
240 14-09-2016 19:55:00 24.2 C 58 % 15.42 C
241 14-09-2016 20:00:00 24.1 C 59 % 15.59 C
242 14-09-2016 20:05:00 23.9 C 60 % 15.66 C
243 14-09-2016 20:10:00 23.8 C 60 % 15.57 C
244 14-09-2016 20:15:00 23.7 C 60 % 15.48 C
245 14-09-2016 20:20:00 23.6 C 61 % 15.64 C
246 14-09-2016 20:25:00 23.4 C 62 % 15.71 C
247 14-09-2016 20:30:00 23.4 C 61 % 15.45 C
248 14-09-2016 20:35:00 23.3 C 62 % 15.61 C
249 14-09-2016 20:40:00 23.3 C 62 % 15.61 C
250 14-09-2016 20:45:00 23.2 C 62 % 15.52 C
Sensor: Nr:Datum:Temp:Feuchte:Taupunkt:
Aussen-T/F 251 14-09-2016 20:50:00 23.1 C 61 % 15.17 C
252 14-09-2016 20:55:00 23 C 63 % 15.58 C
253 14-09-2016 21:00:00 22.9 C 63 % 15.48 C
254 14-09-2016 21:05:00 22.8 C 63 % 15.39 C
255 14-09-2016 21:10:00 22.7 C 64 % 15.54 C
256 14-09-2016 21:15:00 22.7 C 66 % 16.02 C
257 14-09-2016 21:20:00 22.4 C 66 % 15.74 C
258 14-09-2016 21:25:00 22.2 C 68 % 16.01 C
259 14-09-2016 21:30:00 21.8 C 69 % 15.86 C
260 14-09-2016 21:35:00 21.6 C 70 % 15.89 C
261 14-09-2016 21:40:00 21.3 C 70 % 15.61 C
262 14-09-2016 21:45:00 21.1 C 71 % 15.64 C
263 14-09-2016 21:50:00 20.7 C 72 % 15.47 C
264 14-09-2016 21:55:00 20.4 C 73 % 15.4 C
265 14-09-2016 22:00:00 20.3 C 74 % 15.51 C
266 14-09-2016 22:05:00 20.1 C 74 % 15.32 C
267 14-09-2016 22:10:00 19.9 C 75 % 15.34 C
268 14-09-2016 22:15:00 19.8 C 76 % 15.45 C
269 14-09-2016 22:20:00 19.6 C 75 % 15.05 C
270 14-09-2016 22:25:00 19.6 C 76 % 15.26 C
271 14-09-2016 22:30:00 19.6 C 76 % 15.26 C
272 14-09-2016 22:35:00 19.6 C 76 % 15.26 C
273 14-09-2016 22:40:00 19.5 C 76 % 15.16 C
274 14-09-2016 22:45:00 19.4 C 77 % 15.27 C
275 14-09-2016 22:50:00 19.2 C 77 % 15.07 C
Sensor: Nr:Datum:Temp:Feuchte:Taupunkt:
Aussen-T/F 276 14-09-2016 22:55:00 19.1 C 77 % 14.97 C
277 14-09-2016 23:00:00 19.1 C 77 % 14.97 C
278 14-09-2016 23:05:00 19 C 77 % 14.88 C
279 14-09-2016 23:10:00 18.9 C 78 % 14.98 C
280 14-09-2016 23:15:00 18.8 C 78 % 14.88 C
281 14-09-2016 23:20:00 18.8 C 78 % 14.88 C
282 14-09-2016 23:25:00 18.7 C 78 % 14.79 C
283 14-09-2016 23:30:00 18.6 C 79 % 14.89 C
284 14-09-2016 23:35:00 18.5 C 79 % 14.79 C
285 14-09-2016 23:40:00 18.4 C 79 % 14.69 C
286 14-09-2016 23:45:00 18.3 C 79 % 14.6 C
287 14-09-2016 23:50:00 18.3 C 80 % 14.79 C
288 14-09-2016 23:55:00 18.2 C 80 % 14.69 C

Legende:
   Min
   Max


Maximal/Minimal-Werte vom 14.09.2016 - 14.09.2016

Sensor Min Max Avg
Temp
(Aussen-T/F)
14.4 °C
14-09-2016  07:25:00
30.9 °C
14-09-2016  17:30:00
20.91 °C
Feuchte
(Aussen-T/F)
37 %
14-09-2016  17:05:00
95 %
14-09-2016  07:55:00
74.39 %
Taupunkt
(Aussen-T/F)
13.45 C
14-09-2016  07:25:00
19.01 C
14-09-2016  12:55:00
15.45 C

Die Daten stammen von einer Davis Vantage Pro 2 Wetter-Station und werden unter Linux mit der Software wview2wettercgi und aufbereitet. Alle Angaben erfolgen ohne Gewähr für ihre Vollständigkeit oder Richtigkeit.
Kontakt: Rainer Krienke krienke@uni-koblenz.de . Meine Webseiten an der Uni Koblenz oder privat.
Version: $Revision: 0.78 $